Time,TemperatureF,DewpointF,PressureIn,WindDirection,WindDirectionDegrees,WindSpeedMPH,WindSpeedGustMPH,Humidity,HourlyPrecipIn,Conditions,Clouds,dailyrainin,SoftwareType,DateUTC
2013-12-17 00:02:00,57.3,54.1,29.83,SW,223,0.0,-999.0,91,0.00,,,0.00,Femah Weather Statio,2013-12-16 11:02:00,
2013-12-17 00:12:00,57.2,54.0,29.83,SW,223,0.0,-999.0,91,0.00,,,0.00,Femah Weather Statio,2013-12-16 11:12:00,
2013-12-17 00:22:00,57.2,54.0,29.83,SW,223,0.0,-999.0,91,0.00,,,0.00,Femah Weather Statio,2013-12-16 11:22:00,
2013-12-17 00:32:00,57.2,54.0,29.83,SW,223,1.0,-999.0,91,0.00,,,0.00,Femah Weather Statio,2013-12-16 11:32:00,
2013-12-17 00:42:00,56.7,53.5,29.82,SW,227,3.0,-999.0,91,0.00,,,0.00,Femah Weather Statio,2013-12-16 11:42:00,
2013-12-17 00:52:00,56.5,53.3,29.82,SW,227,0.0,-999.0,91,0.00,,,0.00,Femah Weather Statio,2013-12-16 11:52:00,
2013-12-17 01:02:00,56.5,53.6,29.82,SW,227,0.0,-999.0,92,0.00,,,0.00,Femah Weather Statio,2013-12-16 12:02:00,
2013-12-17 01:12:00,56.5,53.3,29.82,SW,227,2.0,-999.0,91,0.00,,,0.00,Femah Weather Statio,2013-12-16 12:12:00,
2013-12-17 01:22:00,56.4,52.8,29.82,SW,227,2.0,-999.0,90,0.00,,,0.00,Femah Weather Statio,2013-12-16 12:22:00,
2013-12-17 01:32:00,56.6,53.4,29.82,SSW,213,0.0,-999.0,91,0.00,,,0.00,Femah Weather Statio,2013-12-16 12:32:00,
2013-12-17 01:42:00,56.7,53.5,29.82,SSW,203,0.0,-999.0,91,0.00,,,0.00,Femah Weather Statio,2013-12-16 12:42:00,
2013-12-17 01:52:00,56.6,53.7,29.82,SSW,203,0.0,-999.0,92,0.00,,,0.00,Femah Weather Statio,2013-12-16 12:52:00,
2013-12-17 02:02:00,57.1,53.9,29.82,SSW,203,0.0,-999.0,91,0.00,,,0.00,Femah Weather Statio,2013-12-16 13:02:00,
2013-12-17 02:12:00,57.0,53.8,29.82,SSW,203,0.0,-999.0,91,0.00,,,0.00,Femah Weather Statio,2013-12-16 13:12:00,
2013-12-17 02:22:00,57.1,54.2,29.82,SSW,203,0.0,-999.0,92,0.00,,,0.00,Femah Weather Statio,2013-12-16 13:22:00,
2013-12-17 02:32:00,57.4,54.5,29.81,SSW,203,0.0,-999.0,92,0.00,,,0.00,Femah Weather Statio,2013-12-16 13:32:00,
2013-12-17 02:42:00,57.4,54.5,29.81,SSW,203,0.0,-999.0,92,0.00,,,0.00,Femah Weather Statio,2013-12-16 13:42:00,
2013-12-17 02:52:00,57.5,55.0,29.82,SSW,203,0.0,-999.0,93,0.00,,,0.00,Femah Weather Statio,2013-12-16 13:52:00,
2013-12-17 03:03:00,57.9,55.4,29.82,SSW,203,0.0,-999.0,93,0.00,,,0.00,Femah Weather Statio,2013-12-16 14:03:00,
2013-12-17 03:13:00,58.1,55.6,29.82,SSW,203,0.0,-999.0,93,0.00,,,0.00,Femah Weather Statio,2013-12-16 14:13:00,
2013-12-17 03:23:00,58.0,55.5,29.82,SSW,203,0.0,-999.0,93,0.00,,,0.00,Femah Weather Statio,2013-12-16 14:23:00,
2013-12-17 03:33:00,57.8,55.3,29.82,SSW,203,0.0,-999.0,93,0.00,,,0.00,Femah Weather Statio,2013-12-16 14:33:00,
2013-12-17 03:42:00,57.9,55.4,29.82,SSW,203,0.0,-999.0,93,0.00,,,0.00,Femah Weather Statio,2013-12-16 14:42:00,
2013-12-17 03:53:00,58.3,55.8,29.82,WNW,287,0.0,-999.0,93,0.00,,,0.00,Femah Weather Statio,2013-12-16 14:53:00,
2013-12-17 04:03:00,58.5,56.0,29.82,WSW,242,1.0,-999.0,93,0.00,,,0.00,Femah Weather Statio,2013-12-16 15:03:00,
2013-12-17 04:13:00,58.3,55.4,29.82,WSW,240,5.0,-999.0,92,0.00,,,0.00,Femah Weather Statio,2013-12-16 15:13:00,
2013-12-17 04:23:00,57.9,54.7,29.82,WSW,239,0.0,-999.0,91,0.00,,,0.00,Femah Weather Statio,2013-12-16 15:23:00,
2013-12-17 04:33:00,57.6,54.4,29.82,SW,232,1.0,-999.0,91,0.00,,,0.00,Femah Weather Statio,2013-12-16 15:33:00,
2013-12-17 04:43:00,57.3,54.1,29.82,SSW,197,0.0,-999.0,91,0.00,,,0.00,Femah Weather Statio,2013-12-16 15:43:00,
2013-12-17 04:53:00,57.1,53.9,29.83,SSW,197,0.0,-999.0,91,0.00,,,0.00,Femah Weather Statio,2013-12-16 15:53:00,
2013-12-17 05:03:00,56.6,53.0,29.83,West,265,5.0,-999.0,90,0.00,,,0.00,Femah Weather Statio,2013-12-16 16:03:00,
2013-12-17 05:13:00,56.4,52.8,29.84,SSE,162,0.0,-999.0,90,0.00,,,0.00,Femah Weather Statio,2013-12-16 16:13:00,
2013-12-17 05:23:00,56.4,52.1,29.84,ENE,75,3.0,-999.0,88,0.00,,,0.00,Femah Weather Statio,2013-12-16 16:23:00,
2013-12-17 05:33:00,56.7,51.3,29.84,SE,131,4.0,-999.0,85,0.00,,,0.00,Femah Weather Statio,2013-12-16 16:33:00,
2013-12-17 05:43:00,56.5,50.7,29.84,SE,131,9.0,-999.0,84,0.00,,,0.00,Femah Weather Statio,2013-12-16 16:43:00,
2013-12-17 05:53:00,56.3,50.5,29.85,SE,141,6.0,-999.0,84,0.00,,,0.00,Femah Weather Statio,2013-12-16 16:53:00,
2013-12-17 06:03:00,56.3,50.5,29.86,SE,146,4.0,-999.0,84,0.00,,,0.00,Femah Weather Statio,2013-12-16 17:03:00,
2013-12-17 06:13:00,56.3,50.5,29.86,ESE,110,5.0,-999.0,84,0.00,,,0.00,Femah Weather Statio,2013-12-16 17:13:00,
2013-12-17 06:23:00,56.3,50.9,29.86,ENE,78,5.0,-999.0,85,0.00,,,0.00,Femah Weather Statio,2013-12-16 17:23:00,
2013-12-17 06:33:00,56.6,50.8,29.86,East,93,2.0,-999.0,84,0.00,,,0.00,Femah Weather Statio,2013-12-16 17:33:00,
2013-12-17 06:43:00,56.7,50.6,29.87,SSE,147,1.0,-999.0,83,0.00,,,0.00,Femah Weather Statio,2013-12-16 17:43:00,
2013-12-17 06:53:00,56.9,50.4,29.87,South,186,0.0,-999.0,82,0.00,,,0.00,Femah Weather Statio,2013-12-16 17:53:00,
2013-12-17 07:03:00,56.9,51.1,29.88,West,261,0.0,-999.0,84,0.00,,,0.00,Femah Weather Statio,2013-12-16 18:03:00,
2013-12-17 07:13:00,56.8,51.4,29.88,WSW,244,0.0,-999.0,85,0.00,,,0.00,Femah Weather Statio,2013-12-16 18:13:00,
2013-12-17 07:23:00,56.6,51.6,29.88,West,259,0.0,-999.0,86,0.00,,,0.00,Femah Weather Statio,2013-12-16 18:23:00,
2013-12-17 07:33:00,56.4,51.0,29.89,SE,128,0.0,-999.0,85,0.00,,,0.01,Femah Weather Statio,2013-12-16 18:33:00,
2013-12-17 07:43:00,56.0,50.6,29.90,South,175,0.0,-999.0,85,0.10,,,0.02,Femah Weather Statio,2013-12-16 18:43:00,
2013-12-17 07:53:00,55.5,50.8,29.90,East,98,0.0,-999.0,87,0.06,,,0.03,Femah Weather Statio,2013-12-16 18:53:00,
2013-12-17 08:03:00,55.2,50.9,29.91,WSW,254,0.0,-999.0,88,0.05,,,0.04,Femah Weather Statio,2013-12-16 19:03:00,
2013-12-17 08:13:00,55.0,50.7,29.91,East,80,0.0,-999.0,88,0.05,,,0.05,Femah Weather Statio,2013-12-16 19:13:00,
2013-12-17 08:23:00,54.4,50.1,29.91,SSE,148,0.0,-999.0,88,0.03,,,0.05,Femah Weather Statio,2013-12-16 19:23:00,
2013-12-17 08:33:00,54.4,50.1,29.92,SW,217,0.0,-999.0,88,0.00,,,0.05,Femah Weather Statio,2013-12-16 19:33:00,
2013-12-17 08:43:00,54.8,50.5,29.92,SE,124,0.0,-999.0,88,0.00,,,0.05,Femah Weather Statio,2013-12-16 19:43:00,
2013-12-17 08:53:00,55.5,50.8,29.92,SE,142,3.0,-999.0,87,0.00,,,0.05,Femah Weather Statio,2013-12-16 19:53:00,
2013-12-17 09:03:00,55.6,50.6,29.93,SE,133,4.0,-999.0,86,0.00,,,0.05,Femah Weather Statio,2013-12-16 20:03:00,
2013-12-17 09:13:00,55.0,49.2,29.93,East,96,1.0,-999.0,84,0.00,,,0.05,Femah Weather Statio,2013-12-16 20:13:00,
2013-12-17 09:23:00,54.8,49.4,29.94,SSE,147,1.0,-999.0,85,0.00,,,0.05,Femah Weather Statio,2013-12-16 20:23:00,
2013-12-17 09:33:00,54.6,49.6,29.94,SSE,161,0.0,-999.0,86,0.00,,,0.05,Femah Weather Statio,2013-12-16 20:33:00,
2013-12-17 09:43:00,54.5,49.8,29.94,SW,214,0.0,-999.0,87,0.00,,,0.05,Femah Weather Statio,2013-12-16 20:43:00,
2013-12-17 09:53:00,54.3,49.3,29.94,West,261,0.0,-999.0,86,0.00,,,0.05,Femah Weather Statio,2013-12-16 20:53:00,
2013-12-17 10:03:00,54.8,50.1,29.95,South,173,0.0,-999.0,87,0.00,,,0.05,Femah Weather Statio,2013-12-16 21:03:00,
2013-12-17 10:13:00,54.0,49.3,29.95,SSW,210,3.0,-999.0,87,0.00,,,0.05,Femah Weather Statio,2013-12-16 21:13:00,
2013-12-17 10:23:00,53.5,49.2,29.96,WSW,249,1.0,-999.0,88,0.00,,,0.05,Femah Weather Statio,2013-12-16 21:23:00,
2013-12-17 10:33:00,53.4,49.1,29.97,South,180,0.0,-999.0,88,0.00,,,0.05,Femah Weather Statio,2013-12-16 21:33:00,
2013-12-17 10:43:00,53.4,48.7,29.98,WSW,238,1.0,-999.0,87,0.00,,,0.06,Femah Weather Statio,2013-12-16 21:43:00,
2013-12-17 10:53:00,53.0,48.3,29.98,SW,228,0.0,-999.0,87,0.00,,,0.06,Femah Weather Statio,2013-12-16 21:53:00,
2013-12-17 11:03:00,53.1,48.4,29.99,SW,231,0.0,-999.0,87,0.00,,,0.06,Femah Weather Statio,2013-12-16 22:03:00,
2013-12-17 11:13:00,52.8,48.1,29.99,WNW,286,0.0,-999.0,87,0.00,,,0.06,Femah Weather Statio,2013-12-16 22:13:00,
2013-12-17 11:23:00,53.0,48.3,30.00,West,265,3.0,-999.0,87,0.03,,,0.07,Femah Weather Statio,2013-12-16 22:23:00,
2013-12-17 11:33:00,52.6,47.6,30.00,SSW,204,2.0,-999.0,86,0.00,,,0.07,Femah Weather Statio,2013-12-16 22:33:00,
2013-12-17 11:43:00,52.7,47.7,30.00,West,273,4.0,-999.0,86,0.00,,,0.07,Femah Weather Statio,2013-12-16 22:43:00,
2013-12-17 11:53:00,53.3,48.6,30.00,WSW,239,0.0,-999.0,87,0.00,,,0.07,Femah Weather Statio,2013-12-16 22:53:00,
2013-12-17 12:03:00,54.0,49.3,30.00,WSW,247,0.0,-999.0,87,0.00,,,0.07,Femah Weather Statio,2013-12-16 23:03:00,
2013-12-17 12:13:00,54.5,49.5,30.00,WSW,242,0.0,-999.0,86,0.00,,,0.07,Femah Weather Statio,2013-12-16 23:13:00,
2013-12-17 12:33:00,55.7,49.2,30.00,WSW,255,0.0,-999.0,82,0.00,,,0.07,Femah Weather Statio,2013-12-16 23:33:00,
2013-12-17 12:43:00,56.6,50.5,30.00,WSW,252,0.0,-999.0,83,0.00,,,0.07,Femah Weather Statio,2013-12-16 23:43:00,
2013-12-17 12:53:00,57.6,50.8,30.00,NE,46,1.0,-999.0,81,0.00,,,0.07,Femah Weather Statio,2013-12-16 23:53:00,
2013-12-17 13:03:00,58.7,50.4,29.99,North,5,2.0,-999.0,77,0.00,,,0.08,Femah Weather Statio,2013-12-17 00:03:00,
2013-12-17 13:23:00,59.1,49.4,29.99,WNW,286,7.0,-999.0,73,0.00,,,0.08,Femah Weather Statio,2013-12-17 00:23:00,
2013-12-17 13:33:00,57.8,48.4,30.00,WNW,290,2.0,-999.0,74,0.00,,,0.08,Femah Weather Statio,2013-12-17 00:33:00,
2013-12-17 13:43:00,57.8,49.2,29.99,SW,227,5.0,-999.0,76,0.00,,,0.08,Femah Weather Statio,2013-12-17 00:43:00,
2013-12-17 13:53:00,57.3,49.0,29.99,SW,229,5.0,-999.0,77,0.00,,,0.08,Femah Weather Statio,2013-12-17 00:53:00,
2013-12-17 14:13:00,58.9,49.5,29.99,West,263,6.0,-999.0,74,0.00,,,0.08,Femah Weather Statio,2013-12-17 01:13:00,
2013-12-17 14:23:00,59.3,49.6,29.99,West,261,0.0,-999.0,73,0.00,,,0.08,Femah Weather Statio,2013-12-17 01:23:00,
2013-12-17 14:33:00,58.7,48.6,29.99,West,266,3.0,-999.0,72,0.00,,,0.08,Femah Weather Statio,2013-12-17 01:33:00,
2013-12-17 14:43:00,58.7,49.0,29.99,SSW,213,6.0,-999.0,73,0.00,,,0.08,Femah Weather Statio,2013-12-17 01:43:00,
2013-12-17 14:53:00,58.4,48.7,29.99,SW,232,0.0,-999.0,73,0.00,,,0.08,Femah Weather Statio,2013-12-17 01:53:00,
2013-12-17 15:03:00,58.6,49.2,29.98,West,269,5.0,-999.0,74,0.00,,,0.08,Femah Weather Statio,2013-12-17 02:03:00,
2013-12-17 15:13:00,58.5,49.1,29.98,SW,225,9.0,-999.0,74,0.00,,,0.08,Femah Weather Statio,2013-12-17 02:13:00,
2013-12-17 15:23:00,59.2,50.2,29.98,SSE,161,5.0,-999.0,75,0.00,,,0.08,Femah Weather Statio,2013-12-17 02:23:00,
2013-12-17 15:33:00,60.4,49.6,29.98,West,269,5.0,-999.0,70,0.00,,,0.08,Femah Weather Statio,2013-12-17 02:33:00,
2013-12-17 15:43:00,59.7,49.3,29.98,SW,219,6.0,-999.0,71,0.00,,,0.08,Femah Weather Statio,2013-12-17 02:43:00,
2013-12-17 15:53:00,59.0,49.3,29.98,SW,232,4.0,-999.0,73,0.00,,,0.08,Femah Weather Statio,2013-12-17 02:53:00,
2013-12-17 16:03:00,58.9,48.8,29.98,West,261,2.0,-999.0,72,0.00,,,0.08,Femah Weather Statio,2013-12-17 03:03:00,
2013-12-17 16:13:00,58.6,48.9,29.98,WNW,290,1.0,-999.0,73,0.00,,,0.08,Femah Weather Statio,2013-12-17 03:13:00,
2013-12-17 16:23:00,58.1,48.7,29.98,WNW,286,2.0,-999.0,74,0.00,,,0.08,Femah Weather Statio,2013-12-17 03:23:00,
2013-12-17 16:33:00,57.3,48.3,29.98,WNW,301,4.0,-999.0,75,0.00,,,0.08,Femah Weather Statio,2013-12-17 03:33:00,
2013-12-17 16:43:00,56.8,48.5,29.99,NW,315,2.0,-999.0,77,0.00,,,0.08,Femah Weather Statio,2013-12-17 03:43:00,
2013-12-17 16:53:00,56.8,48.9,29.98,ENE,58,0.0,-999.0,78,0.00,,,0.08,Femah Weather Statio,2013-12-17 03:53:00,
2013-12-17 17:03:00,56.7,48.8,29.98,NW,321,4.0,-999.0,78,0.00,,,0.08,Femah Weather Statio,2013-12-17 04:03:00,
2013-12-17 17:13:00,56.8,49.2,29.98,WNW,297,4.0,-999.0,79,0.00,,,0.08,Femah Weather Statio,2013-12-17 04:13:00,
2013-12-17 17:23:00,57.1,49.2,29.98,NNW,329,0.0,-999.0,78,0.00,,,0.08,Femah Weather Statio,2013-12-17 04:23:00,
2013-12-17 17:33:00,57.4,48.8,29.98,WNW,291,0.0,-999.0,76,0.00,,,0.08,Femah Weather Statio,2013-12-17 04:33:00,
2013-12-17 17:43:00,57.5,48.9,29.97,North,5,0.0,-999.0,76,0.00,,,0.08,Femah Weather Statio,2013-12-17 04:43:00,
2013-12-17 17:53:00,57.3,48.7,29.97,NNW,340,0.0,-999.0,76,0.00,,,0.08,Femah Weather Statio,2013-12-17 04:53:00,
2013-12-17 18:03:00,57.2,48.6,29.97,WSW,257,0.0,-999.0,76,0.00,,,0.08,Femah Weather Statio,2013-12-17 05:03:00,
2013-12-17 18:13:00,57.1,48.8,29.97,NNW,332,0.0,-999.0,77,0.00,,,0.08,Femah Weather Statio,2013-12-17 05:13:00,
2013-12-17 18:23:00,57.0,48.7,29.97,NNW,340,0.0,-999.0,77,0.00,,,0.08,Femah Weather Statio,2013-12-17 05:23:00,
2013-12-17 18:33:00,56.9,48.3,29.97,NNW,338,0.0,-999.0,76,0.00,,,0.08,Femah Weather Statio,2013-12-17 05:33:00,
2013-12-17 18:43:00,56.8,48.5,29.97,NNW,338,0.0,-999.0,77,0.00,,,0.08,Femah Weather Statio,2013-12-17 05:43:00,
2013-12-17 18:53:00,56.8,48.9,29.98,North,355,0.0,-999.0,78,0.00,,,0.08,Femah Weather Statio,2013-12-17 05:53:00,
2013-12-17 19:03:00,56.6,48.7,29.98,NNE,16,0.0,-999.0,78,0.00,,,0.08,Femah Weather Statio,2013-12-17 06:03:00,
2013-12-17 19:13:00,56.3,48.4,29.98,NNE,25,4.0,-999.0,78,0.00,,,0.08,Femah Weather Statio,2013-12-17 06:13:00,
2013-12-17 19:23:00,56.3,48.7,29.98,NE,40,4.0,-999.0,79,0.00,,,0.08,Femah Weather Statio,2013-12-17 06:23:00,
2013-12-17 19:33:00,56.3,49.8,29.99,North,11,9.0,-999.0,82,0.00,,,0.08,Femah Weather Statio,2013-12-17 06:33:00,
2013-12-17 19:43:00,55.9,49.8,29.99,North,9,4.0,-999.0,83,0.00,,,0.08,Femah Weather Statio,2013-12-17 06:43:00,
2013-12-17 19:53:00,55.3,49.5,29.99,NW,316,0.0,-999.0,84,0.00,,,0.08,Femah Weather Statio,2013-12-17 06:53:00,
2013-12-17 20:03:00,54.8,49.8,30.00,North,350,0.0,-999.0,86,0.00,,,0.08,Femah Weather Statio,2013-12-17 07:03:00,
2013-12-17 20:13:00,54.4,49.7,30.00,North,11,0.0,-999.0,87,0.00,,,0.08,Femah Weather Statio,2013-12-17 07:13:00,
2013-12-17 20:33:00,54.0,50.0,30.00,NE,46,0.0,-999.0,89,0.00,,,0.08,Femah Weather Statio,2013-12-17 07:33:00,
2013-12-17 20:43:00,53.8,49.8,30.00,NE,51,0.0,-999.0,89,0.00,,,0.08,Femah Weather Statio,2013-12-17 07:43:00,
2013-12-17 20:53:00,53.8,49.8,30.01,NE,44,0.0,-999.0,89,0.00,,,0.08,Femah Weather Statio,2013-12-17 07:53:00,
2013-12-17 21:03:00,53.8,50.2,30.00,NE,44,0.0,-999.0,90,0.00,,,0.08,Femah Weather Statio,2013-12-17 08:03:00,
2013-12-17 21:23:00,53.9,49.9,30.01,NNE,16,0.0,-999.0,89,0.00,,,0.08,Femah Weather Statio,2013-12-17 08:23:00,
2013-12-17 21:33:00,53.9,49.9,30.01,NNE,17,0.0,-999.0,89,0.00,,,0.08,Femah Weather Statio,2013-12-17 08:33:00,
2013-12-17 21:43:00,53.9,49.9,30.01,NNE,29,0.0,-999.0,89,0.00,,,0.08,Femah Weather Statio,2013-12-17 08:43:00,
2013-12-17 21:53:00,53.8,50.2,30.01,North,9,1.0,-999.0,90,0.00,,,0.08,Femah Weather Statio,2013-12-17 08:53:00,
2013-12-17 22:13:00,53.4,49.8,30.02,NE,39,0.0,-999.0,90,0.00,,,0.08,Femah Weather Statio,2013-12-17 09:13:00,
2013-12-17 22:23:00,53.3,49.7,30.02,NE,40,0.0,-999.0,90,0.00,,,0.08,Femah Weather Statio,2013-12-17 09:23:00,
2013-12-17 22:33:00,53.2,50.0,30.02,NE,40,0.0,-999.0,91,0.00,,,0.09,Femah Weather Statio,2013-12-17 09:33:00,
2013-12-17 22:43:00,53.1,49.9,30.02,NE,40,0.0,-999.0,91,0.00,,,0.09,Femah Weather Statio,2013-12-17 09:43:00,
2013-12-17 23:03:00,52.9,50.0,30.02,NE,40,0.0,-999.0,92,0.00,,,0.09,Femah Weather Statio,2013-12-17 10:03:00,
2013-12-17 23:13:00,52.6,49.7,30.01,NE,41,0.0,-999.0,92,0.00,,,0.09,Femah Weather Statio,2013-12-17 10:13:00,
2013-12-17 23:23:00,52.6,49.7,30.01,NE,44,0.0,-999.0,92,0.00,,,0.09,Femah Weather Statio,2013-12-17 10:23:00,
2013-12-17 23:33:00,52.6,49.7,30.01,NE,44,0.0,-999.0,92,0.00,,,0.09,Femah Weather Statio,2013-12-17 10:33:00,
2013-12-17 23:53:00,53.0,50.1,30.01,NE,44,0.0,-999.0,92,0.00,,,0.09,Femah Weather Statio,2013-12-17 10:53:00,